Muzaffarabad Weather



Muzaffarabad's Current Weather

Temprature 19.9o scattered clouds

scattered clouds

Rain: 0 %

Min Temprature19.9o
Max Temprature19.9o
Humidity25
Wind Speed1.16 m/h
Sun Rise06:22:32
Sun Set17:17:03
Current Time: 28-Oct-2020 07:39:18
Lat/Lon: 34.37, 73.47




Muzaffarabad's Geo Location



Muzaffarabad's Weather Forecast

Time Overall Temp Min Temp Max Temp Humidity Wind Speed Rain
28-Oct-2020 (Wed)
08:00:00 few clouds 17.320 17.320 19.900 29 1.16 m/h 0 %
11:00:00 few clouds 23.640 23.640 26.060 20 2.16 m/h 0 %
14:00:00 broken clouds 25.950 25.950 26.710 17 2.65 m/h 0 %
17:00:00 overcast clouds 20.720 20.720 20.770 24 1.3 m/h 0 %
20:00:00 scattered clouds 16.660 16.660 16.660 31 1.54 m/h 0 %
23:00:00 few clouds 15.380 15.380 15.380 33 1.98 m/h 0 %
29-Oct-2020 (Thu)
02:00:00 clear sky 14.710 14.710 14.710 34 2.18 m/h 0 %
05:00:00 clear sky 14.130 14.130 14.130 35 2.22 m/h 0 %
08:00:00 few clouds 19.020 19.020 19.020 26 1.65 m/h 0 %
11:00:00 broken clouds 25.050 25.050 25.050 18 2.08 m/h 0 %
14:00:00 overcast clouds 25.480 25.480 25.480 17 1.98 m/h 0 %
17:00:00 broken clouds 20.190 20.190 20.190 24 1.04 m/h 0 %
20:00:00 clear sky 16.340 16.340 16.340 30 1.99 m/h 0 %
23:00:00 clear sky 15.180 15.180 15.180 32 2.35 m/h 0 %
30-Oct-2020 (Fri)
02:00:00 clear sky 14.490 14.490 14.490 33 2.33 m/h 0 %
05:00:00 clear sky 13.940 13.940 13.940 34 2.44 m/h 0 %
08:00:00 clear sky 18.710 18.710 18.710 26 1.9 m/h 0 %
11:00:00 clear sky 25.540 25.540 25.540 17 1.78 m/h 0 %
14:00:00 clear sky 26.230 26.230 26.230 15 2.22 m/h 0 %
17:00:00 clear sky 20.100 20.100 20.100 23 1.14 m/h 0 %
20:00:00 clear sky 15.840 15.840 15.840 31 2.38 m/h 0 %
23:00:00 clear sky 14.770 14.770 14.770 33 2.56 m/h 0 %
31-Oct-2020 (Sat)
02:00:00 clear sky 14.190 14.190 14.190 33 2.62 m/h 0 %
05:00:00 clear sky 13.600 13.600 13.600 33 2.63 m/h 0 %
08:00:00 clear sky 18.540 18.540 18.540 25 1.94 m/h 0 %
11:00:00 clear sky 25.960 25.960 25.960 16 1.52 m/h 0 %
14:00:00 clear sky 26.930 26.930 26.930 14 2.23 m/h 0 %
17:00:00 clear sky 20.460 20.460 20.460 22 1.08 m/h 0 %
20:00:00 clear sky 16.250 16.250 16.250 28 2.12 m/h 0 %
23:00:00 clear sky 15.270 15.270 15.270 29 2.55 m/h 0 %
01-Nov-2020 (Sun)
02:00:00 clear sky 14.950 14.950 14.950 29 2.59 m/h 0 %
05:00:00 clear sky 14.580 14.580 14.580 30 2.58 m/h 0 %
08:00:00 clear sky 19.470 19.470 19.470 24 2.03 m/h 0 %
11:00:00 clear sky 26.890 26.890 26.890 15 1.51 m/h 0 %
14:00:00 clear sky 27.630 27.630 27.630 14 2.11 m/h 0 %
17:00:00 clear sky 21.150 21.150 21.150 22 0.99 m/h 0 %
20:00:00 clear sky 17.020 17.020 17.020 27 2.23 m/h 0 %
23:00:00 clear sky 15.880 15.880 15.880 29 2.42 m/h 0 %
02-Nov-2020 (Mon)
02:00:00 clear sky 15.440 15.440 15.440 29 2.48 m/h 0 %
05:00:00 clear sky 15.010 15.010 15.010 30 2.52 m/h 0 %

Famous Cities (60)